Time;durP1;ratioP1;P1;durP2;ratioP2;P2;SDS_P1;SDS_P2;PMS_P1;PMS_P2;Temp;Humidity;BMP_temperature;BMP_pressure;BME280_temperature;BME280_humidity;BME280_pressure;Samples;Min_cycle;Max_cycle;Signal;HPM_P1;HPM_P2
2023/06/04 00:01:33;;;;;;;10.55;4.80;;;16.80;99.90;;;;;;5026999;28;20403;-68
2023/06/04 00:03:59;;;;;;;12.57;5.05;;;16.80;99.90;;;;;;5028458;28;20394;-68
2023/06/04 00:06:25;;;;;;;11.50;4.95;;;16.70;99.90;;;;;;5027093;28;20541;-68
2023/06/04 00:08:50;;;;;;;11.32;5.13;;;16.70;99.90;;;;;;5029107;28;20516;-69
2023/06/04 00:11:16;;;;;;;11.40;4.40;;;16.50;99.90;;;;;;5029303;28;20411;-68
2023/06/04 00:13:41;;;;;;;11.80;4.57;;;16.50;99.90;;;;;;5034017;28;20427;-68
2023/06/04 00:16:07;;;;;;;12.00;5.10;;;16.50;99.90;;;;;;5042568;28;20394;-68
2023/06/04 00:18:32;;;;;;;10.93;4.77;;;16.50;99.90;;;;;;5035084;28;20433;-68
2023/06/04 00:20:58;;;;;;;10.05;4.40;;;16.50;99.90;;;;;;5033801;28;20500;-68
2023/06/04 00:23:23;;;;;;;11.00;5.20;;;16.50;99.90;;;;;;5030577;28;20464;-68
2023/06/04 00:25:49;;;;;;;11.18;5.03;;;16.50;99.90;;;;;;5029882;28;20854;-68
2023/06/04 00:28:15;;;;;;;11.00;5.10;;;16.50;99.90;;;;;;5028832;28;20406;-68
2023/06/04 00:30:40;;;;;;;11.20;4.87;;;16.40;99.90;;;;;;5031749;28;20399;-69
2023/06/04 00:33:06;;;;;;;11.50;5.03;;;16.30;99.90;;;;;;5030264;28;20461;-68
2023/06/04 00:35:32;;;;;;;12.48;5.13;;;16.10;99.90;;;;;;5030039;28;20482;-68
2023/06/04 00:37:58;;;;;;;11.20;4.90;;;16.20;99.90;;;;;;5029328;28;20446;-68
2023/06/04 00:40:23;;;;;;;11.98;4.93;;;16.10;99.90;;;;;;5029298;28;20387;-68
2023/06/04 00:42:49;;;;;;;10.90;5.28;;;16.10;99.90;;;;;;5029101;28;20391;-68
2023/06/04 00:45:18;;;;;;;13.10;5.30;;;16.20;99.90;;;;;;5028572;28;20419;-68
2023/06/04 00:47:43;;;;;;;11.60;4.85;;;16.20;99.90;;;;;;5026545;28;20517;-68
2023/06/04 00:50:09;;;;;;;11.37;5.10;;;16.20;99.90;;;;;;5027881;28;20434;-68
2023/06/04 00:52:36;;;;;;;10.35;5.20;;;16.20;99.90;;;;;;5027810;28;20437;-68
2023/06/04 00:55:02;;;;;;;13.27;4.67;;;16.20;99.90;;;;;;5027920;28;20391;-68
2023/06/04 00:57:27;;;;;;;11.77;4.90;;;16.20;99.90;;;;;;5027709;28;20485;-68
2023/06/04 00:59:53;;;;;;;10.38;4.65;;;16.20;99.90;;;;;;5028000;28;20474;-68
2023/06/04 01:02:22;;;;;;;9.85;4.25;;;16.20;99.90;;;;;;5030869;28;20406;-68
2023/06/04 01:04:55;;;;;;;10.43;4.80;;;16.20;99.90;;;;;;5031892;28;20407;-68
2023/06/04 01:07:21;;;;;;;10.52;4.60;;;16.20;99.90;;;;;;5032035;28;20436;-68
2023/06/04 01:09:47;;;;;;;11.73;4.55;;;16.30;99.90;;;;;;5031833;28;20407;-68
2023/06/04 01:12:13;;;;;;;10.63;4.20;;;16.20;99.90;;;;;;5031663;28;20417;-68
2023/06/04 01:14:38;;;;;;;13.40;4.80;;;16.20;99.90;;;;;;5031558;28;20533;-69
2023/06/04 01:17:23;;;;;;;10.13;4.50;;;16.10;99.90;;;;;;5031352;28;20529;-68
2023/06/04 01:20:05;;;;;;;8.77;4.60;;;16.10;99.90;;;;;;5031387;28;20403;-68
2023/06/04 01:22:56;;;;;;;9.43;3.90;;;16.10;99.90;;;;;;5031325;28;20391;-68
2023/06/04 01:25:32;;;;;;;9.88;4.15;;;16.00;99.90;;;;;;5032038;28;20435;-68
2023/06/04 01:27:58;;;;;;;12.82;4.47;;;16.00;99.90;;;;;;5031254;28;20416;-68
2023/06/04 01:30:26;;;;;;;8.20;3.58;;;16.10;99.90;;;;;;5031989;28;20547;-68
2023/06/04 01:32:54;;;;;;;8.17;3.30;;;16.10;99.90;;;;;;5031850;28;20478;-68
2023/06/04 01:35:21;;;;;;;9.48;4.03;;;16.10;99.90;;;;;;5031170;28;20853;-68
2023/06/04 01:37:47;;;;;;;8.73;3.20;;;16.30;99.90;;;;;;5031239;28;20895;-68
2023/06/04 01:40:13;;;;;;;7.30;3.35;;;16.30;99.90;;;;;;5031352;28;20494;-68
2023/06/04 01:42:41;;;;;;;11.68;3.50;;;16.20;99.90;;;;;;5029581;28;20386;-68
2023/06/04 01:45:08;;;;;;;10.65;3.35;;;16.20;99.90;;;;;;5033754;28;20501;-68
2023/06/04 01:47:34;;;;;;;8.27;3.70;;;16.20;99.90;;;;;;5043471;28;20442;-68
2023/06/04 01:50:09;;;;;;;8.18;3.50;;;16.20;99.90;;;;;;5041915;28;20427;-68
2023/06/04 01:52:39;;;;;;;11.68;3.78;;;16.20;99.90;;;;;;5035861;28;20403;-68
2023/06/04 01:55:11;;;;;;;11.10;3.60;;;16.10;99.90;;;;;;5033028;28;20468;-68
2023/06/04 01:57:39;;;;;;;8.88;3.35;;;15.90;99.90;;;;;;5031423;28;20459;-68
2023/06/04 02:00:10;;;;;;;7.93;3.38;;;15.80;99.90;;;;;;5030941;28;20429;-68
2023/06/04 02:02:36;;;;;;;10.38;4.05;;;15.70;99.90;;;;;;5030609;28;20824;-68
2023/06/04 02:05:09;;;;;;;10.07;3.55;;;15.50;99.90;;;;;;5030966;28;20500;-68
2023/06/04 02:07:38;;;;;;;9.20;4.05;;;15.40;99.90;;;;;;5030511;28;21153;-68
2023/06/04 02:10:08;;;;;;;11.52;4.18;;;15.20;99.90;;;;;;5030309;28;20398;-68
2023/06/04 02:12:37;;;;;;;10.35;3.90;;;15.00;99.90;;;;;;5029979;28;20370;-68
2023/06/04 02:15:03;;;;;;;8.70;3.60;;;15.00;99.90;;;;;;5030098;28;20423;-68
2023/06/04 02:17:32;;;;;;;9.30;4.30;;;14.90;99.90;;;;;;5030293;28;20398;-68
2023/06/04 02:19:58;;;;;;;11.10;4.63;;;14.90;99.90;;;;;;5030485;28;20475;-68
2023/06/04 02:22:25;;;;;;;9.07;4.00;;;14.90;99.90;;;;;;5030872;28;20414;-68
2023/06/04 02:24:51;;;;;;;10.55;4.40;;;14.80;99.90;;;;;;5030354;28;20875;-68
2023/06/04 02:27:17;;;;;;;10.07;4.25;;;14.80;99.90;;;;;;5029881;28;20419;-68
2023/06/04 02:29:43;;;;;;;13.20;4.60;;;14.70;99.90;;;;;;5030457;28;20379;-68
2023/06/04 02:32:09;;;;;;;9.20;4.28;;;14.70;99.90;;;;;;5029762;28;20398;-68
2023/06/04 02:34:36;;;;;;;11.07;4.93;;;14.60;99.90;;;;;;5030508;28;20396;-68
2023/06/04 02:37:03;;;;;;;11.20;3.80;;;14.60;99.90;;;;;;5028665;28;20402;-68
2023/06/04 02:39:28;;;;;;;9.20;4.47;;;14.60;99.90;;;;;;5029797;28;20791;-67
2023/06/04 02:41:54;;;;;;;10.80;4.40;;;14.40;99.90;;;;;;5029038;28;20487;-67
2023/06/04 02:44:20;;;;;;;9.75;3.92;;;14.30;99.90;;;;;;5029005;28;20406;-67
2023/06/04 02:46:45;;;;;;;10.33;4.10;;;14.30;1.00;;;;;;5028319;28;20407;-67
2023/06/04 02:49:13;;;;;;;10.30;4.20;;;14.30;1.00;;;;;;5029540;28;20387;-68
2023/06/04 02:51:39;;;;;;;10.52;3.90;;;14.10;1.00;;;;;;5029543;28;20938;-68
2023/06/04 02:54:05;;;;;;;8.48;3.97;;;14.10;99.90;;;;;;5029340;28;20387;-68
2023/06/04 02:56:31;;;;;;;8.43;3.90;;;14.10;99.90;;;;;;5029592;28;20423;-68
2023/06/04 02:58:56;;;;;;;11.80;4.00;;;14.10;99.90;;;;;;5029555;28;20957;-67
2023/06/04 03:01:23;;;;;;;8.95;3.78;;;14.20;99.90;;;;;;5029670;28;20398;-68
2023/06/04 03:03:49;;;;;;;9.10;3.60;;;14.30;99.90;;;;;;5029828;28;20391;-68
2023/06/04 03:06:16;;;;;;;13.10;3.72;;;14.30;99.90;;;;;;5029605;28;20863;-68
2023/06/04 03:08:43;;;;;;;9.05;3.50;;;14.30;99.90;;;;;;5030561;28;20412;-68
2023/06/04 03:11:09;;;;;;;10.18;3.42;;;14.40;99.90;;;;;;5029892;28;20490;-68
2023/06/04 03:13:35;;;;;;;9.05;3.60;;;14.30;99.90;;;;;;5029091;28;20848;-68
2023/06/04 03:16:01;;;;;;;8.25;3.20;;;14.30;99.90;;;;;;5029050;28;20406;-68
2023/06/04 03:18:28;;;;;;;10.80;3.50;;;14.30;99.90;;;;;;5030051;28;20383;-68
2023/06/04 03:20:54;;;;;;;9.10;3.60;;;14.30;99.90;;;;;;5045224;28;20394;-68
2023/06/04 03:23:21;;;;;;;10.25;3.45;;;14.40;99.90;;;;;;5040817;28;20403;-68
2023/06/04 03:25:46;;;;;;;9.30;3.22;;;14.40;99.90;;;;;;5029672;28;20419;-68
2023/06/04 03:28:12;;;;;;;10.47;3.60;;;14.40;99.90;;;;;;5029048;28;20702;-68
2023/06/04 03:30:37;;;;;;;10.15;3.60;;;14.40;99.90;;;;;;5028991;28;20533;-68
2023/06/04 03:33:03;;;;;;;7.77;3.40;;;14.40;99.90;;;;;;5029107;28;20508;-68
2023/06/04 03:35:29;;;;;;;9.20;3.63;;;14.40;99.90;;;;;;5028695;28;20390;-68
2023/06/04 03:37:54;;;;;;;9.70;3.40;;;14.40;99.90;;;;;;5029162;28;20855;-68
2023/06/04 03:40:20;;;;;;;9.30;3.33;;;14.40;99.90;;;;;;5029459;28;20393;-68
2023/06/04 03:42:46;;;;;;;9.07;3.30;;;14.50;99.90;;;;;;5028904;28;20399;-68
2023/06/04 03:45:11;;;;;;;8.30;3.08;;;14.50;99.90;;;;;;5028936;28;20517;-68
2023/06/04 03:47:38;;;;;;;7.55;2.88;;;14.30;99.90;;;;;;5028962;28;20403;-68
2023/06/04 03:50:05;;;;;;;9.30;3.40;;;14.30;99.90;;;;;;5028735;28;20465;-68
2023/06/04 03:52:31;;;;;;;9.00;3.22;;;14.40;99.90;;;;;;5028778;28;20395;-68
2023/06/04 03:54:56;;;;;;;9.05;3.72;;;14.50;99.90;;;;;;5028804;28;20390;-68
2023/06/04 03:57:22;;;;;;;9.98;3.60;;;14.50;99.90;;;;;;5028737;28;20494;-68
2023/06/04 03:59:48;;;;;;;8.77;3.17;;;14.40;99.90;;;;;;5028166;28;20446;-68
2023/06/04 04:02:13;;;;;;;8.87;3.00;;;14.50;99.90;;;;;;5028154;28;20383;-68
2023/06/04 04:04:39;;;;;;;8.27;2.90;;;14.60;99.90;;;;;;5028907;28;20431;-68
2023/06/04 04:07:04;;;;;;;8.25;2.80;;;14.50;99.90;;;;;;5028243;28;20452;-68
2023/06/04 04:09:30;;;;;;;9.00;3.03;;;14.50;99.90;;;;;;5028608;28;20387;-68
2023/06/04 04:11:55;;;;;;;8.07;3.20;;;14.50;99.90;;;;;;5028422;28;20391;-68
2023/06/04 04:14:21;;;;;;;6.88;2.78;;;14.70;99.90;;;;;;5028578;28;20404;-68
2023/06/04 04:16:47;;;;;;;10.10;3.13;;;14.90;99.90;;;;;;5028308;28;20410;-68
2023/06/04 04:19:12;;;;;;;10.00;3.00;;;14.90;99.90;;;;;;5027776;28;20418;-69
2023/06/04 04:21:38;;;;;;;8.50;3.20;;;14.90;99.90;;;;;;5027945;28;20409;-68
2023/06/04 04:24:04;;;;;;;9.70;3.15;;;14.80;99.90;;;;;;5027862;28;20394;-68
2023/06/04 04:26:29;;;;;;;9.80;3.30;;;15.00;99.90;;;;;;5028276;28;20497;-68
2023/06/04 04:28:57;;;;;;;9.23;3.37;;;15.10;99.90;;;;;;5027687;28;20727;-67
2023/06/04 04:31:24;;;;;;;9.02;3.20;;;15.10;99.90;;;;;;5028643;28;20387;-67
2023/06/04 04:33:51;;;;;;;7.70;3.00;;;15.30;99.90;;;;;;5028335;28;20391;-67
2023/06/04 04:36:18;;;;;;;9.32;3.00;;;15.40;99.90;;;;;;5026149;28;20402;-68
2023/06/04 04:38:44;;;;;;;10.20;2.93;;;15.60;99.90;;;;;;5027832;28;20411;-68
2023/06/04 04:41:11;;;;;;;8.38;2.85;;;15.70;99.90;;;;;;5028118;28;20403;-68
2023/06/04 04:43:39;;;;;;;8.25;3.00;;;15.90;99.90;;;;;;5027825;28;20398;-68
2023/06/04 04:46:06;;;;;;;7.60;3.00;;;16.20;99.90;;;;;;5027987;28;20411;-68
2023/06/04 04:48:31;;;;;;;8.75;3.20;;;16.30;99.90;;;;;;5027923;28;20902;-68
2023/06/04 04:50:57;;;;;;;8.27;3.40;;;16.10;99.90;;;;;;5028096;28;20379;-68
2023/06/04 04:53:23;;;;;;;8.40;2.85;;;15.90;99.90;;;;;;5028473;28;20394;-68
2023/06/04 04:55:48;;;;;;;8.20;3.10;;;15.80;99.90;;;;;;5038599;28;20454;-67
2023/06/04 04:58:15;;;;;;;7.80;2.50;;;15.80;99.90;;;;;;5041266;28;21196;-68
2023/06/04 05:00:41;;;;;;;8.82;3.40;;;15.80;99.90;;;;;;5033695;28;20391;-68
2023/06/04 05:03:06;;;;;;;6.57;2.70;;;16.00;99.90;;;;;;5031365;28;20397;-68
2023/06/04 05:05:33;;;;;;;7.85;2.80;;;16.10;99.90;;;;;;5029934;28;20425;-69
2023/06/04 05:07:59;;;;;;;8.30;2.60;;;16.00;99.90;;;;;;5028646;28;20422;-68
2023/06/04 05:10:25;;;;;;;7.18;2.60;;;16.10;99.90;;;;;;5028640;28;20958;-69
2023/06/04 05:12:56;;;;;;;10.30;3.50;;;16.50;99.90;;;;;;5028176;28;20399;-69
2023/06/04 05:15:22;;;;;;;6.82;2.55;;;17.40;99.90;;;;;;5028225;28;20411;-68
2023/06/04 05:17:48;;;;;;;6.95;2.60;;;18.50;99.90;;;;;;5028133;28;20500;-68
2023/06/04 05:20:15;;;;;;;7.70;2.42;;;19.50;99.90;;;;;;5027320;28;20483;-68
2023/06/04 05:22:40;;;;;;;7.60;2.67;;;20.40;99.90;;;;;;5026997;28;20492;-69
2023/06/04 05:25:06;;;;;;;8.70;2.70;;;20.80;99.90;;;;;;5026174;28;20918;-69
2023/06/04 05:27:32;;;;;;;7.70;2.58;;;21.90;99.90;;;;;;5027269;28;20486;-68
2023/06/04 05:29:58;;;;;;;11.50;2.88;;;22.30;99.90;;;;;;5027409;28;20509;-69
2023/06/04 05:32:28;;;;;;;6.63;2.30;;;22.90;99.90;;;;;;5028076;28;20421;-69
2023/06/04 05:34:57;;;;;;;7.38;2.05;;;23.00;99.90;;;;;;5029446;28;20892;-69
2023/06/04 05:37:23;;;;;;;6.85;2.20;;;22.80;99.90;;;;;;5029816;28;20407;-68
2023/06/04 05:39:50;;;;;;;8.40;2.08;;;23.10;99.90;;;;;;5028537;28;20970;-69
2023/06/04 05:42:15;;;;;;;7.95;2.40;;;23.40;99.90;;;;;;5028134;28;20401;-69
2023/06/04 05:44:41;;;;;;;6.32;1.80;;;23.30;99.90;;;;;;5028179;28;20775;-69
2023/06/04 05:47:06;;;;;;;8.00;2.30;;;23.50;99.90;;;;;;5029098;28;20395;-69
2023/06/04 05:49:34;;;;;;;7.10;2.17;;;23.80;99.90;;;;;;5030502;28;20472;-69
2023/06/04 05:52:00;;;;;;;6.87;1.80;;;24.40;1.00;;;;;;5031428;28;20410;-69
2023/06/04 05:54:26;;;;;;;6.47;2.10;;;24.80;99.90;;;;;;5030907;28;20379;-69
2023/06/04 05:56:51;;;;;;;6.90;1.95;;;25.40;1.00;;;;;;5031817;28;20713;-69
2023/06/04 05:59:17;;;;;;;7.07;2.25;;;25.30;99.90;;;;;;5031294;28;20398;-71
2023/06/04 06:01:43;;;;;;;5.80;1.80;;;25.20;99.90;;;;;;5031578;28;20430;-69
2023/06/04 06:04:08;;;;;;;7.40;2.10;;;25.10;99.90;;;;;;5031104;28;20391;-69
2023/06/04 06:06:35;;;;;;;7.40;2.00;;;25.30;99.90;;;;;;5030484;28;20489;-69
2023/06/04 06:09:01;;;;;;;6.50;2.05;;;;;;;;;;5029898;28;20441;-69
2023/06/04 06:11:27;;;;;;;7.35;2.33;;;;;;;;;;5030686;28;20391;-69
2023/06/04 06:13:53;;;;;;;7.15;2.10;;;;;;;;;;5030930;28;20455;-69
2023/06/04 06:16:19;;;;;;;7.10;2.00;;;;;;;;;;5030637;28;20484;-69
2023/06/04 06:18:45;;;;;;;9.00;2.42;;;;;;;;;;5030650;28;20399;-69
2023/06/04 06:21:11;;;;;;;7.20;2.10;;;;;;;;;;5030317;28;20382;-69
2023/06/04 06:23:37;;;;;;;8.30;2.20;;;;;;;;;;5029845;28;20971;-69
2023/06/04 06:26:07;;;;;;;6.70;2.00;;;;;;;;;;5030512;28;20415;-69
2023/06/04 06:28:33;;;;;;;6.60;1.90;;;;;;;;;;5030395;28;20411;-69
2023/06/04 06:31:00;;;;;;;7.40;2.10;;;;;;;;;;5030728;28;20426;-69
2023/06/04 06:33:26;;;;;;;8.20;2.20;;;;;;;;;;5043322;28;20410;-69
2023/06/04 06:35:52;;;;;;;6.70;1.90;;;;;;;;;;5040302;28;20395;-69
2023/06/04 06:38:18;;;;;;;6.40;1.92;;;;;;;;;;5030084;28;20379;-69
2023/06/04 06:40:44;;;;;;;6.20;2.00;;;;;;;;;;5030540;28;20410;-69
2023/06/04 06:43:10;;;;;;;13.60;2.47;;;;;;;;;;5030282;28;20883;-69
2023/06/04 06:45:36;;;;;;;9.80;1.57;;;;;;;;;;5029085;28;20422;-69
2023/06/04 06:48:03;;;;;;;7.60;2.20;;;;;;;;;;5029764;28;20781;-69
2023/06/04 06:50:29;;;;;;;6.40;2.20;;;;;;;;;;5029940;28;20387;-69
2023/06/04 06:52:56;;;;;;;6.30;1.90;;;;;;;;;;5028350;28;20379;-69
2023/06/04 06:55:22;;;;;;;7.93;1.90;;;;;;;;;;5030020;28;20407;-69
2023/06/04 06:57:47;;;;;;;6.93;2.30;;;;;;;;;;5029777;28;20706;-68
2023/06/04 07:00:14;;;;;;;5.80;1.80;;;;;;;;;;5029056;28;20456;-69
2023/06/04 07:02:40;;;;;;;6.50;2.10;;;;;;;;;;5029787;28;20395;-69
2023/06/04 07:05:05;;;;;;;7.13;2.20;;;31.20;99.90;;;;;;5029419;28;20411;-69
2023/06/04 07:07:31;;;;;;;6.43;1.90;;;31.00;99.90;;;;;;5029257;28;20383;-70
2023/06/04 07:09:56;;;;;;;6.00;1.90;;;31.30;99.90;;;;;;5029364;28;21171;-70
2023/06/04 07:12:23;;;;;;;7.00;2.37;;;31.20;99.90;;;;;;5030770;28;20387;-75
2023/06/04 07:14:48;;;;;;;5.90;2.28;;;30.80;99.90;;;;;;5046081;28;20403;-74
2023/06/04 07:17:14;;;;;;;6.87;2.40;;;31.80;99.90;;;;;;5030463;28;20922;-75
2023/06/04 07:19:39;;;;;;;12.60;2.20;;;32.20;99.90;;;;;;5030534;28;20502;-75
2023/06/04 07:22:05;;;;;;;6.80;2.10;;;32.10;99.90;;;;;;5029733;28;20403;-69
2023/06/04 07:24:34;;;;;;;6.37;2.40;;;31.50;99.90;;;;;;5029400;28;20460;-70
2023/06/04 07:26:59;;;;;;;8.13;2.60;;;30.40;99.90;;;;;;5028963;28;20931;-69
2023/06/04 07:29:25;;;;;;;6.80;1.85;;;29.20;99.90;;;;;;5029682;28;20449;-69
2023/06/04 07:31:50;;;;;;;8.80;2.10;;;27.80;99.90;;;;;;5030082;28;20383;-69
2023/06/04 07:34:16;;;;;;;6.47;2.43;;;26.50;99.90;;;;;;5029685;28;20725;-69
2023/06/04 07:36:41;;;;;;;6.50;2.20;;;26.30;99.90;;;;;;5030626;28;20389;-69
2023/06/04 07:39:07;;;;;;;6.68;2.17;;;26.30;99.90;;;;;;5030056;28;20532;-69
2023/06/04 07:41:32;;;;;;;7.10;2.55;;;26.80;99.90;;;;;;5029692;28;20394;-69
2023/06/04 07:43:58;;;;;;;5.90;1.80;;;26.80;99.90;;;;;;5030346;28;20409;-69
2023/06/04 07:46:23;;;;;;;8.10;3.10;;;27.10;99.90;;;;;;5030971;28;20510;-69
2023/06/04 07:48:49;;;;;;;6.50;2.20;;;26.50;99.90;;;;;;5028216;28;20457;-68
2023/06/04 07:51:14;;;;;;;6.70;2.30;;;26.80;99.90;;;;;;5030581;28;20391;-69
2023/06/04 07:53:42;;;;;;;6.15;1.90;;;26.30;99.90;;;;;;5029995;28;20391;-68
2023/06/04 07:56:07;;;;;;;6.40;1.95;;;26.80;99.90;;;;;;5028979;28;20449;-70
2023/06/04 07:58:33;;;;;;;7.27;2.40;;;27.60;99.90;;;;;;5028554;28;20798;-69
2023/06/04 08:01:00;;;;;;;7.22;2.30;;;28.80;99.90;;;;;;5029032;28;20496;-69
2023/06/04 08:03:25;;;;;;;8.30;2.60;;;29.90;99.90;;;;;;5029557;28;20726;-69
2023/06/04 08:05:51;;;;;;;7.30;2.70;;;29.60;99.90;;;;;;5045031;28;20435;-69
2023/06/04 08:08:16;;;;;;;8.07;2.10;;;29.10;99.90;;;;;;5046700;28;20403;-69
2023/06/04 08:10:42;;;;;;;6.90;2.30;;;28.40;99.90;;;;;;5031152;28;20386;-69
2023/06/04 08:13:09;;;;;;;9.63;2.40;;;28.20;99.90;;;;;;5029559;28;20399;-69
2023/06/04 08:15:36;;;;;;;7.40;2.25;;;28.10;99.90;;;;;;5027863;28;20407;-69
2023/06/04 08:18:02;;;;;;;6.80;2.00;;;27.80;99.90;;;;;;5027532;28;20694;-69
2023/06/04 08:20:27;;;;;;;7.70;3.00;;;27.80;99.90;;;;;;5043789;28;20421;-69
2023/06/04 08:22:53;;;;;;;6.40;2.30;;;28.50;99.90;;;;;;5029633;28;20383;-69
2023/06/04 08:25:18;;;;;;;7.30;2.40;;;29.40;99.90;;;;;;5029959;28;20426;-70
2023/06/04 08:27:44;;;;;;;7.50;2.50;;;29.30;99.90;;;;;;5029163;28;20413;-70
2023/06/04 08:30:10;;;;;;;6.30;2.30;;;28.50;99.90;;;;;;5029104;28;20474;-69
2023/06/04 08:32:35;;;;;;;10.45;2.10;;;27.50;99.90;;;;;;5029083;28;20406;-69
2023/06/04 08:35:01;;;;;;;7.00;2.50;;;27.60;99.90;;;;;;5029092;28;20379;-69
2023/06/04 08:37:26;;;;;;;6.70;2.23;;;28.40;99.90;;;;;;5028635;28;20486;-70
2023/06/04 08:39:52;;;;;;;8.10;2.40;;;28.40;99.90;;;;;;5029322;28;20440;-70
2023/06/04 08:42:35;;;;;;;7.33;1.80;;;28.60;99.90;;;;;;5028543;28;20398;-70
2023/06/04 08:45:00;;;;;;;7.45;2.25;;;29.60;99.90;;;;;;5027105;28;20397;-70
2023/06/04 08:47:29;;;;;;;8.70;2.60;;;30.60;99.90;;;;;;5028229;28;20407;-70
2023/06/04 08:49:59;;;;;;;6.80;2.50;;;30.60;99.90;;;;;;5027867;28;20933;-70
2023/06/04 08:52:25;;;;;;;7.00;2.00;;;30.50;99.90;;;;;;5028013;28;20930;-70
2023/06/04 08:54:52;;;;;;;6.13;1.92;;;31.00;99.90;;;;;;5028706;28;20723;-70
2023/06/04 08:57:19;;;;;;;8.93;2.80;;;31.40;99.90;;;;;;5026509;28;20438;-70
2023/06/04 08:59:48;;;;;;;6.90;2.30;;;32.10;99.90;;;;;;5028090;28;21075;-70
2023/06/04 09:02:17;;;;;;;7.05;2.00;;;32.80;99.90;;;;;;5028255;28;20733;-70
2023/06/04 09:04:44;;;;;;;7.57;2.40;;;32.50;99.90;;;;;;5027743;28;20460;-70
2023/06/04 09:07:14;;;;;;;7.30;2.35;;;32.40;99.90;;;;;;5028091;28;20935;-70
2023/06/04 09:09:41;;;;;;;8.00;2.40;;;32.40;99.90;;;;;;5027876;28;20812;-70
2023/06/04 09:12:14;;;;;;;6.70;2.40;;;33.00;99.90;;;;;;5027496;28;20398;-70
2023/06/04 09:14:40;;;;;;;6.70;2.47;;;32.90;99.90;;;;;;5027677;28;20415;-70
2023/06/04 09:17:08;;;;;;;8.23;2.60;;;32.60;99.90;;;;;;5028347;28;20805;-70
2023/06/04 09:19:33;;;;;;;6.93;2.50;;;33.90;99.90;;;;;;5027392;28;20398;-70
2023/06/04 09:22:02;;;;;;;7.18;2.60;;;34.60;99.90;;;;;;5029063;28;20442;-70
2023/06/04 09:24:46;;;;;;;6.90;2.60;;;34.40;99.90;;;;;;5032130;28;20440;-70
2023/06/04 09:27:14;;;;;;;8.35;3.13;;;34.50;99.90;;;;;;5031477;28;20407;-70
2023/06/04 09:29:48;;;;;;;7.60;2.70;;;33.20;99.90;;;;;;5031810;28;20915;-70
2023/06/04 09:32:15;;;;;;;7.20;2.80;;;33.90;99.90;;;;;;5031977;28;20395;-70
2023/06/04 09:34:45;;;;;;;8.20;2.30;;;34.10;99.90;;;;;;5033295;28;20494;-70
2023/06/04 09:37:16;;;;;;;7.70;2.30;;;33.60;99.90;;;;;;5048487;28;20390;-70
2023/06/04 09:39:42;;;;;;;8.63;2.50;;;32.30;99.90;;;;;;5051472;28;20884;-70
2023/06/04 09:42:08;;;;;;;7.00;2.38;;;32.20;99.90;;;;;;5038946;28;20418;-70
2023/06/04 09:44:44;;;;;;;11.50;2.83;;;32.80;99.90;;;;;;5034797;28;20478;-70
2023/06/04 09:47:10;;;;;;;7.60;2.55;;;33.60;99.90;;;;;;5032014;28;20434;-70
2023/06/04 09:49:50;;;;;;;7.30;2.50;;;33.80;99.90;;;;;;5031283;28;20382;-70
2023/06/04 09:52:20;;;;;;;7.70;2.80;;;34.20;99.90;;;;;;5030927;28;20410;-69
2023/06/04 09:54:45;;;;;;;7.80;3.00;;;33.80;99.90;;;;;;5031631;28;20407;-69
2023/06/04 09:57:18;;;;;;;8.20;3.30;;;34.10;99.90;;;;;;5031205;28;21009;-69
2023/06/04 09:59:46;;;;;;;8.23;2.70;;;34.30;99.90;;;;;;5030873;28;20402;-69
2023/06/04 10:02:12;;;;;;;8.07;2.57;;;34.70;99.90;;;;;;5030939;28;20395;-69
2023/06/04 10:04:45;;;;;;;7.15;2.65;;;34.40;99.90;;;;;;5031072;28;20486;-69
2023/06/04 10:07:18;;;;;;;6.97;2.90;;;33.10;99.90;;;;;;5030512;28;20898;-70
2023/06/04 10:09:47;;;;;;;7.10;2.90;;;33.30;99.90;;;;;;5029838;28;20394;-70
2023/06/04 10:12:16;;;;;;;8.48;3.00;;;32.80;99.90;;;;;;5030907;28;20418;-70
2023/06/04 10:14:52;;;;;;;6.97;2.42;;;33.60;99.90;;;;;;5029668;28;20832;-70
2023/06/04 10:17:22;;;;;;;8.45;3.42;;;33.10;99.90;;;;;;5030553;28;20402;-70
2023/06/04 10:19:51;;;;;;;10.48;2.47;;;32.70;99.90;;;;;;5030447;28;20458;-70
2023/06/04 10:22:17;;;;;;;9.68;3.00;;;32.20;99.90;;;;;;5030808;28;20396;-70
2023/06/04 10:24:44;;;;;;;7.00;3.10;;;32.60;99.90;;;;;;5030958;28;20399;-70
2023/06/04 10:27:12;;;;;;;7.03;2.60;;;33.50;99.90;;;;;;5030067;28;20473;-70
2023/06/04 10:29:39;;;;;;;8.40;3.33;;;33.10;99.90;;;;;;5030481;28;20399;-70
2023/06/04 10:32:05;;;;;;;12.32;3.20;;;32.50;99.90;;;;;;5030781;28;20972;-70
2023/06/04 10:34:31;;;;;;;8.32;3.10;;;31.80;99.90;;;;;;5031250;28;20402;-70
2023/06/04 10:36:57;;;;;;;7.78;2.90;;;31.40;99.90;;;;;;5031105;28;20885;-70
2023/06/04 10:39:27;;;;;;;7.80;2.63;;;31.00;99.90;;;;;;5031152;28;20474;-70
2023/06/04 10:42:04;;;;;;;6.53;2.50;;;30.30;99.90;;;;;;5032753;28;20426;-70
2023/06/04 10:44:45;;;;;;;8.10;2.40;;;29.40;99.90;;;;;;5030161;28;20483;-70
2023/06/04 10:47:24;;;;;;;10.25;3.30;;;29.50;99.90;;;;;;5030265;28;20430;-70
2023/06/04 10:49:51;;;;;;;10.20;2.80;;;29.70;99.90;;;;;;5030483;28;20388;-69
2023/06/04 10:52:17;;;;;;;9.13;2.60;;;29.40;99.90;;;;;;5030519;28;20918;-70
2023/06/04 10:54:44;;;;;;;7.67;2.70;;;29.20;99.90;;;;;;5029921;28;20515;-70
2023/06/04 10:57:12;;;;;;;9.70;3.00;;;28.70;99.90;;;;;;5029992;28;20402;-69
2023/06/04 10:59:37;;;;;;;8.75;2.60;;;28.70;99.90;;;;;;5030176;28;21059;-69
2023/06/04 11:02:07;;;;;;;7.75;2.63;;;29.10;99.90;;;;;;5030232;28;20491;-69
2023/06/04 11:04:35;;;;;;;7.63;2.80;;;29.30;99.90;;;;;;5031984;28;20379;-69
2023/06/04 11:07:08;;;;;;;14.10;3.10;;;29.50;99.90;;;;;;5047489;28;20427;-69
2023/06/04 11:09:35;;;;;;;7.82;2.90;;;29.60;99.90;;;;;;5040745;28;20395;-69
2023/06/04 11:12:02;;;;;;;7.80;3.00;;;29.30;99.90;;;;;;5034641;28;20445;-69
2023/06/04 11:14:28;;;;;;;7.95;3.03;;;29.20;99.90;;;;;;5013868;28;21227;-69
2023/06/04 11:16:53;;;;;;;8.00;2.70;;;29.00;99.90;;;;;;5031173;28;20398;-70
2023/06/04 11:19:20;;;;;;;8.15;2.80;;;29.40;99.90;;;;;;5028448;28;20603;-70
2023/06/04 11:21:47;;;;;;;7.82;3.33;;;29.10;99.90;;;;;;5032639;28;20425;-70
2023/06/04 11:24:13;;;;;;;7.72;3.08;;;29.00;99.90;;;;;;5032251;28;20407;-69
2023/06/04 11:26:38;;;;;;;8.20;3.03;;;29.10;99.90;;;;;;5033630;28;20430;-69
2023/06/04 11:29:11;;;;;;;8.70;3.20;;;29.20;99.90;;;;;;5032967;28;20395;-69
2023/06/04 11:31:45;;;;;;;8.95;3.20;;;29.30;99.90;;;;;;5031611;28;20795;-70
2023/06/04 11:34:21;;;;;;;8.85;3.72;;;29.20;99.90;;;;;;5030936;28;20398;-70
2023/06/04 11:36:49;;;;;;;9.27;4.00;;;29.40;99.90;;;;;;5030562;28;20414;-70
2023/06/04 11:39:15;;;;;;;7.95;3.30;;;29.60;99.90;;;;;;5030044;28;20394;-70
2023/06/04 11:41:42;;;;;;;7.72;3.08;;;29.40;99.90;;;;;;5029697;28;20451;-70
2023/06/04 11:44:08;;;;;;;8.70;2.60;;;29.10;99.90;;;;;;5029033;28;20402;-70
2023/06/04 11:46:35;;;;;;;9.60;3.15;;;29.30;99.90;;;;;;5029228;28;20756;-70
2023/06/04 11:49:07;;;;;;;11.63;3.00;;;29.50;99.90;;;;;;5029183;28;20460;-70
2023/06/04 11:51:34;;;;;;;7.65;2.97;;;29.50;99.90;;;;;;5029224;28;20549;-71
2023/06/04 11:54:02;;;;;;;7.40;2.95;;;29.10;99.90;;;;;;5029187;28;20808;-70
2023/06/04 11:56:27;;;;;;;7.38;2.80;;;29.10;99.90;;;;;;5028563;28;20472;-70
2023/06/04 11:58:55;;;;;;;7.73;2.77;;;29.40;99.90;;;;;;5029241;28;20441;-70
2023/06/04 12:01:21;;;;;;;8.20;2.90;;;29.10;99.90;;;;;;5029542;28;20399;-69
2023/06/04 12:03:46;;;;;;;8.70;2.95;;;29.00;99.90;;;;;;5029124;28;20388;-69
2023/06/04 12:06:17;;;;;;;8.80;3.20;;;28.70;99.90;;;;;;5028517;28;20453;-70
2023/06/04 12:08:54;;;;;;;7.90;3.10;;;28.90;99.90;;;;;;5028970;28;20474;-69
2023/06/04 12:11:34;;;;;;;10.88;3.03;;;28.90;99.90;;;;;;5028720;28;20387;-70
2023/06/04 12:14:04;;;;;;;8.07;2.72;;;28.60;99.90;;;;;;5028564;28;20415;-70
2023/06/04 12:16:31;;;;;;;6.75;2.65;;;28.00;99.90;;;;;;5029178;28;20387;-70
2023/06/04 12:19:10;;;;;;;9.75;2.80;;;28.40;99.90;;;;;;5028453;28;20398;-70
2023/06/04 12:21:36;;;;;;;7.93;3.10;;;28.90;99.90;;;;;;5028722;28;20486;-70
2023/06/04 12:24:12;;;;;;;7.15;2.45;;;29.10;99.90;;;;;;5028593;28;20505;-70
2023/06/04 12:26:43;;;;;;;12.93;2.70;;;29.20;99.90;;;;;;5028299;28;20910;-70
2023/06/04 12:29:19;;;;;;;8.00;2.92;;;29.10;99.90;;;;;;5028695;28;20813;-70
2023/06/04 12:31:46;;;;;;;7.33;2.90;;;29.10;99.90;;;;;;5028372;28;20391;-70
2023/06/04 12:34:14;;;;;;;7.90;2.45;;;28.90;99.90;;;;;;5043141;28;20410;-70
2023/06/04 12:36:41;;;;;;;8.18;2.30;;;29.00;99.90;;;;;;5036556;28;20772;-70
2023/06/04 12:39:08;;;;;;;7.60;2.50;;;29.40;99.90;;;;;;5028927;28;20840;-70
2023/06/04 12:41:34;;;;;;;6.20;2.50;;;29.50;99.90;;;;;;5027901;28;20398;-70
2023/06/04 12:44:01;;;;;;;16.88;3.50;;;29.10;99.90;;;;;;5028278;28;20399;-70
2023/06/04 12:46:28;;;;;;;8.60;3.40;;;28.80;99.90;;;;;;5028216;28;20411;-70
2023/06/04 12:48:55;;;;;;;8.00;3.20;;;28.60;99.90;;;;;;5028886;28;20419;-70
2023/06/04 12:51:20;;;;;;;10.73;3.60;;;28.70;99.90;;;;;;5028306;28;20428;-70
2023/06/04 12:53:47;;;;;;;6.53;2.30;;;28.80;99.90;;;;;;5027744;28;20444;-70